Time;durP1;ratioP1;P1;durP2;ratioP2;P2;SDS_P1;SDS_P2;PMS_P1;PMS_P2;Temp;Humidity;BMP_temperature;BMP_pressure;BME280_temperature;BME280_humidity;BME280_pressure;Samples;Min_cycle;Max_cycle;Signal;HPM_P1;HPM_P2
2023/08/18 00:02:31;;;;;;;10.80;7.80;;;;;;;22.17;100.00;100496.83;178703;1257;46116;-86
2023/08/18 00:06:34;;;;;;;11.00;8.50;;;;;;;22.05;100.00;100491.08;179175;1258;45912;-85
2023/08/18 00:10:37;;;;;;;12.80;9.70;;;;;;;22.01;100.00;100491.21;178797;1261;57901;-86
2023/08/18 00:14:40;;;;;;;21.00;10.10;;;;;;;21.99;100.00;100491.35;178896;1259;45995;-85
2023/08/18 00:18:44;;;;;;;9.90;9.00;;;;;;;21.98;100.00;100491.80;178948;1257;46112;-85
2023/08/18 00:22:47;;;;;;;12.20;11.00;;;;;;;22.00;100.00;100493.56;179489;1256;46011;-86
2023/08/18 00:26:50;;;;;;;12.70;10.50;;;;;;;22.02;100.00;100491.38;179377;1258;46001;-85
2023/08/18 00:30:53;;;;;;;14.30;10.20;;;;;;;22.04;100.00;100487.80;178755;1260;58110;-85
2023/08/18 00:34:56;;;;;;;13.80;11.80;;;;;;;22.02;100.00;100485.08;178807;1256;45826;-85
2023/08/18 00:38:59;;;;;;;19.60;13.10;;;;;;;21.96;100.00;100477.79;179081;1258;45992;-85
2023/08/18 00:43:02;;;;;;;18.70;14.20;;;;;;;21.93;100.00;100473.64;179161;1257;44716;-85
2023/08/18 00:47:06;;;;;;;16.40;13.10;;;;;;;21.93;100.00;100466.57;179222;1257;44418;-85
2023/08/18 00:51:09;;;;;;;26.50;14.60;;;;;;;21.92;100.00;100461.01;179070;1257;59509;-86
2023/08/18 00:55:13;;;;;;;19.20;14.20;;;;;;;21.90;100.00;100450.38;179161;1257;45969;-85
2023/08/18 00:59:16;;;;;;;14.20;12.00;;;;;;;21.89;100.00;100444.27;179530;1257;46021;-85
2023/08/18 01:03:19;;;;;;;19.60;13.90;;;;;;;21.85;100.00;100446.13;178927;1260;44708;-85
2023/08/18 01:07:22;;;;;;;17.00;14.10;;;;;;;21.78;100.00;100438.78;178833;1259;45967;-85
2023/08/18 01:11:50;;;;;;;17.90;12.70;;;;;;;21.73;100.00;100427.17;178748;1257;57978;-85
2023/08/18 01:15:56;;;;;;;19.40;13.10;;;;;;;21.64;100.00;100420.64;179164;1261;46155;-85
2023/08/18 01:20:00;;;;;;;15.60;12.30;;;;;;;21.57;100.00;100413.56;179114;1258;46067;-86
2023/08/18 01:24:03;;;;;;;18.30;15.50;;;;;;;21.54;100.00;100418.08;178854;1260;45635;-86
2023/08/18 01:28:07;;;;;;;18.40;13.40;;;;;;;21.51;100.00;100413.34;179430;1257;44465;-85
2023/08/18 01:32:11;;;;;;;20.90;14.70;;;;;;;21.49;100.00;100411.98;179498;1257;58975;-85
2023/08/18 01:36:21;;;;;;;25.30;16.20;;;;;;;21.45;100.00;100414.47;178925;1259;44451;-85
2023/08/18 01:40:28;;;;;;;20.40;17.40;;;;;;;21.40;100.00;100410.79;179510;1257;46186;-85
2023/08/18 01:44:31;;;;;;;21.00;16.70;;;;;;;21.37;100.00;100404.19;179285;1257;44120;-85
2023/08/18 01:48:34;;;;;;;21.30;15.80;;;;;;;21.35;100.00;100401.47;179308;1257;44050;-85
2023/08/18 01:52:37;;;;;;;21.70;17.30;;;;;;;21.35;100.00;100401.42;179197;1256;57937;-85
2023/08/18 01:56:40;;;;;;;20.40;14.90;;;;;;;21.25;100.00;100402.75;178825;1257;45986;-85
2023/08/18 02:00:43;;;;;;;26.70;17.40;;;;;;;21.13;100.00;100399.89;178675;1258;46062;-85
2023/08/18 02:04:46;;;;;;;21.30;17.90;;;;;;;21.04;100.00;100404.75;178768;1261;45976;-85
2023/08/18 02:08:49;;;;;;;22.90;17.90;;;;;;;20.95;100.00;100406.86;179201;1261;45980;-85
2023/08/18 02:12:52;;;;;;;21.90;17.90;;;;;;;20.89;100.00;100406.67;178784;1260;59334;-85
2023/08/18 02:16:58;;;;;;;26.70;19.60;;;;;;;20.86;100.00;100403.48;178940;1261;46328;-85
2023/08/18 02:21:02;;;;;;;21.00;18.40;;;;;;;20.85;100.00;100401.23;179376;1261;45991;-85
2023/08/18 02:25:06;;;;;;;24.80;18.20;;;;;;;20.83;100.00;100396.61;178611;1260;46005;-85
2023/08/18 02:29:09;;;;;;;27.20;21.10;;;;;;;20.80;100.00;100388.16;178600;1261;45975;-85
2023/08/18 02:33:12;;;;;;;26.50;20.20;;;;;;;20.78;100.00;100391.46;178414;1257;58003;-85
2023/08/18 02:37:15;;;;;;;27.40;19.50;;;;;;;20.76;100.00;100389.16;178948;1257;46044;-85
2023/08/18 02:41:18;;;;;;;24.40;19.30;;;;;;;20.80;100.00;100387.89;179427;1258;46101;-85
2023/08/18 02:45:22;;;;;;;21.00;18.80;;;;;;;20.83;100.00;100389.52;179003;1261;44124;-85
2023/08/18 02:49:25;;;;;;;28.10;18.40;;;;;;;20.85;100.00;100399.61;178959;1258;46081;-84
2023/08/18 02:53:28;;;;;;;22.00;17.30;;;;;;;20.88;100.00;100399.02;179025;1258;57319;-84
2023/08/18 02:57:31;;;;;;;20.10;16.00;;;;;;;20.89;100.00;100402.51;179431;1262;45621;-85
2023/08/18 03:01:35;;;;;;;23.00;17.80;;;;;;;20.87;100.00;100406.64;179508;1257;45967;-86
2023/08/18 03:05:39;;;;;;;24.40;15.70;;;;;;;20.89;100.00;100408.91;179112;1257;46133;-85
2023/08/18 03:09:42;;;;;;;20.30;16.20;;;;;;;20.87;100.00;100411.60;179919;1257;44091;-85
2023/08/18 03:13:45;;;;;;;18.80;16.60;;;;;;;20.86;100.00;100410.34;178979;1257;57921;-86
2023/08/18 03:17:49;;;;;;;21.00;15.50;;;;;;;20.87;100.00;100411.64;179338;1257;45986;-86
2023/08/18 03:21:52;;;;;;;16.80;14.50;;;;;;;20.87;100.00;100415.26;179772;1258;46136;-86
2023/08/18 03:26:03;;;;;;;19.00;14.90;;;;;;;20.84;100.00;100423.20;180410;1257;44713;-86
2023/08/18 03:30:08;;;;;;;17.50;15.00;;;;;;;20.77;100.00;100428.48;179001;1257;46051;-85
2023/08/18 03:34:11;;;;;;;19.50;14.20;;;;;;;20.73;100.00;100428.95;181089;1257;58236;-86
2023/08/18 03:38:14;;;;;;;18.20;13.90;;;;;;;20.71;100.00;100427.27;180053;1257;46006;-87
2023/08/18 03:42:17;;;;;;;17.20;12.40;;;;;;;20.63;100.00;100422.77;180516;1257;43793;-86
2023/08/18 03:46:27;;;;;;;15.90;11.30;;;;;;;20.56;100.00;100426.20;179650;1257;47592;-86
2023/08/18 03:50:30;;;;;;;14.30;12.60;;;;;;;20.53;100.00;100426.71;179640;1260;45982;-86
2023/08/18 03:54:33;;;;;;;15.80;13.80;;;;;;;20.57;100.00;100425.34;178137;1257;56967;-86
2023/08/18 03:58:37;;;;;;;17.30;15.60;;;;;;;20.61;100.00;100423.98;178654;1261;46023;-86
2023/08/18 04:02:50;;;;;;;17.00;13.60;;;;;;;20.60;100.00;100423.67;179971;1253;44486;-88
2023/08/18 04:06:57;;;;;;;14.50;12.50;;;;;;;20.58;100.00;100422.98;178940;1254;44115;-88
2023/08/18 04:11:03;;;;;;;14.70;13.20;;;;;;;20.58;100.00;100429.60;179052;1254;45999;-88
2023/08/18 04:15:09;;;;;;;13.80;11.80;;;;;;;20.73;100.00;100431.46;178748;1254;57202;-88
2023/08/18 04:19:12;;;;;;;10.80;9.60;;;;;;;21.01;100.00;100429.25;178987;1254;45829;-88
2023/08/18 04:23:16;;;;;;;12.70;11.40;;;;;;;21.32;100.00;100424.16;179258;1254;46069;-89
2023/08/18 04:27:20;;;;;;;13.00;11.20;;;;;;;21.67;100.00;100416.45;178505;1254;46371;-88
2023/08/18 04:31:23;;;;;;;10.90;9.80;;;;;;;21.79;100.00;100414.18;177963;1257;45946;-88
2023/08/18 04:35:27;;;;;;;10.70;9.60;;;;;;;21.61;100.00;100417.73;179024;1254;58005;-91
2023/08/18 04:54:22;;;;;;;18.40;16.10;;;;;;;22.27;100.00;100412.44;178992;1262;45922;-90
2023/08/18 04:58:25;;;;;;;23.70;15.00;;;;;;;22.86;100.00;100412.70;179162;1262;57553;-90
2023/08/18 05:02:28;;;;;;;18.60;15.60;;;;;;;23.51;100.00;100415.41;179574;1262;45210;-89
2023/08/18 05:10:47;;;;;;;17.40;15.50;;;;;;;24.73;100.00;100416.86;161087;1263;44069;-63
2023/08/18 05:14:52;;;;;;;20.20;17.30;;;;;;;25.42;100.00;100419.09;180161;1262;43625;-63
2023/08/18 05:18:55;;;;;;;21.60;16.90;;;;;;;26.04;100.00;100424.80;180089;1262;58583;-63
2023/08/18 05:22:59;;;;;;;21.30;15.60;;;;;;;26.55;97.79;100427.37;180380;1262;43584;-63
2023/08/18 05:27:27;;;;;;;17.30;15.30;;;;;;;26.84;95.14;100435.66;180176;1262;46136;-63
2023/08/18 05:31:30;;;;;;;18.10;15.10;;;;;;;26.73;91.64;100434.09;180071;1262;44711;-63
2023/08/18 05:35:33;;;;;;;18.00;15.90;;;;;;;26.58;93.44;100434.88;179988;1262;43592;-63
2023/08/18 05:39:39;;;;;;;19.10;14.90;;;;;;;26.29;92.22;100435.73;180022;1263;58180;-63
2023/08/18 05:43:42;;;;;;;17.20;15.30;;;;;;;26.19;94.32;100437.89;180015;1262;45980;-63
2023/08/18 05:47:45;;;;;;;16.10;13.80;;;;;;;26.21;94.69;100444.16;179767;1263;44670;-63
2023/08/18 05:51:48;;;;;;;16.90;15.20;;;;;;;26.53;95.71;100451.48;179955;1262;45810;-63
2023/08/18 05:55:52;;;;;;;20.80;15.40;;;;;;;26.90;93.46;100450.99;179846;1263;43522;-63
2023/08/18 05:59:56;;;;;;;15.40;12.70;;;;;;;27.27;92.32;100454.88;180044;1263;58442;-63
2023/08/18 06:04:11;;;;;;;13.40;12.10;;;;;;;27.62;90.61;100455.41;179969;1264;43637;-63
2023/08/18 06:08:16;;;;;;;15.00;13.40;;;;;;;27.89;88.77;100457.41;179933;1262;44884;-63
2023/08/18 06:12:18;;;;;;;16.30;14.10;;;;;;;28.03;88.12;100453.70;180132;1261;45055;-61
2023/08/18 06:16:21;;;;;;;12.20;10.90;;;;;;;28.21;86.88;100456.52;180159;1262;45898;-61
2023/08/18 06:20:24;;;;;;;11.10;9.00;;;;;;;27.97;86.18;100454.52;180200;1262;58259;-61
2023/08/18 06:24:27;;;;;;;14.90;11.50;;;;;;;27.70;87.84;100457.77;179976;1262;43662;-61
2023/08/18 06:28:30;;;;;;;17.60;13.60;;;;;;;27.71;88.93;100456.70;180087;1263;45943;-61
2023/08/18 06:32:33;;;;;;;10.40;9.00;;;;;;;27.40;89.24;100455.83;180127;1262;43550;-61
2023/08/18 06:36:36;;;;;;;14.10;10.30;;;;;;;27.17;89.69;100461.46;179933;1262;45871;-61
2023/08/18 06:40:45;;;;;;;9.00;8.20;;;;;;;27.16;88.97;100467.10;180056;1264;58440;-61
2023/08/18 06:44:48;;;;;;;10.60;9.00;;;;;;;26.92;91.50;100469.34;180104;1263;44355;-63
2023/08/18 06:48:51;;;;;;;8.50;7.30;;;;;;;26.38;93.65;100471.43;179970;1262;43718;-63
2023/08/18 06:52:54;;;;;;;9.70;7.80;;;;;;;26.03;97.50;100469.42;180090;1264;43920;-63
2023/08/18 06:56:57;;;;;;;15.80;9.30;;;;;;;26.29;98.78;100462.77;180105;1262;43810;-63
2023/08/18 07:01:03;;;;;;;8.80;6.80;;;;;;;26.70;95.19;100458.56;180098;1260;58281;-62
2023/08/18 07:05:07;;;;;;;;;;;;;;;26.85;91.79;100465.75;180211;1263;43523;-62
2023/08/18 07:09:12;;;;;;;18.10;12.80;;;;;;;26.83;90.40;100454.25;180097;1261;45809;-63
2023/08/18 07:13:15;;;;;;;17.70;13.90;;;;;;;26.73;91.26;100450.94;179975;1262;44000;-63
2023/08/18 07:17:18;;;;;;;15.60;14.00;;;;;;;26.57;91.89;100447.02;179870;1262;43494;-62
2023/08/18 07:21:37;;;;;;;23.10;21.20;;;;;;;26.52;92.46;100438.06;179815;1264;59915;-63
2023/08/18 07:25:41;;;;;;;33.30;30.00;;;;;;;26.66;91.34;100441.92;179892;1264;45382;-63
2023/08/18 07:29:48;;;;;;;15.20;13.80;;;;;;;26.74;89.65;100438.97;179900;1266;45900;-64
2023/08/18 07:33:52;;;;;;;10.20;7.50;;;;;;;26.75;88.94;100443.16;180267;1263;43596;-63
2023/08/18 07:37:55;;;;;;;10.20;8.80;;;;;;;27.00;91.53;100443.85;180221;1263;43532;-62
2023/08/18 07:41:58;;;;;;;16.50;9.60;;;;;;;27.20;89.55;100442.57;179920;1266;59935;-63
2023/08/18 07:46:01;;;;;;;9.90;8.90;;;;;;;27.25;86.32;100443.58;179734;1262;43880;-63
2023/08/18 07:50:09;;;;;;;10.50;8.20;;;;;;;27.05;85.76;100443.48;180027;1261;86168;-89
2023/08/18 07:54:13;;;;;;;20.20;9.40;;;;;;;26.75;89.62;100449.98;179797;1257;44843;-88
2023/08/18 07:58:17;;;;;;;9.90;8.60;;;;;;;26.77;90.91;100452.83;179269;1257;45509;-89
2023/08/18 08:02:21;;;;;;;8.80;6.90;;;;;;;27.02;90.30;100448.77;179458;1261;58730;-88
2023/08/18 08:06:32;;;;;;;7.60;6.80;;;;;;;27.27;88.15;100454.98;179355;1257;46061;-90
2023/08/18 08:10:36;;;;;;;8.20;7.00;;;;;;;27.46;87.96;100451.44;179719;1257;45960;-90
2023/08/18 08:14:40;;;;;;;10.70;8.20;;;;;;;27.53;86.57;100453.98;179970;1262;45143;-90
2023/08/18 08:18:55;;;;;;;11.50;8.00;;;;;;;27.63;84.74;100457.56;179592;1257;45981;-90
2023/08/18 08:22:59;;;;;;;8.40;6.80;;;;;;;27.60;84.80;100459.63;179734;1258;60390;-90
2023/08/18 08:27:04;;;;;;;11.00;8.60;;;;;;;27.65;84.96;100457.71;180019;1257;44995;-87
2023/08/18 08:31:08;;;;;;;10.80;9.30;;;;;;;27.68;83.07;100457.20;179842;1258;46203;-89
2023/08/18 08:35:12;;;;;;;10.70;8.70;;;;;;;27.73;83.09;100458.31;179796;1257;46459;-88
2023/08/18 08:39:16;;;;;;;11.60;7.40;;;;;;;27.78;82.61;100455.87;179484;1258;44744;-89
2023/08/18 08:43:20;;;;;;;12.20;7.40;;;;;;;27.90;82.33;100453.44;180080;1257;57549;-89
2023/08/18 08:47:24;;;;;;;9.80;7.50;;;;;;;28.03;82.50;100449.58;180418;1258;45918;-89
2023/08/18 08:56:20;;;;;;;9.60;6.90;;;;;;;28.34;82.82;100446.13;177946;1260;45379;-91
2023/08/18 09:00:34;;;;;;;14.00;9.60;;;;;;;28.44;80.03;100436.38;180409;1261;44764;-89
2023/08/18 09:13:39;;;;;;;11.80;6.40;;;;;;;28.56;78.96;100438.27;179702;1260;44547;-91
2023/08/18 09:18:03;;;;;;;7.30;6.60;;;;;;;28.68;77.64;100430.13;156991;1259;45030;-63
2023/08/18 09:22:06;;;;;;;8.00;6.10;;;;;;;28.79;77.68;100420.55;180274;1261;45849;-63
2023/08/18 09:26:11;;;;;;;11.00;6.50;;;;;;;28.80;80.48;100419.48;180340;1259;59205;-63
2023/08/18 09:30:16;;;;;;;7.50;5.20;;;;;;;28.81;78.50;100415.63;179066;1259;1576613;-63
2023/08/18 09:34:21;;;;;;;6.20;5.10;;;;;;;28.78;77.18;100413.80;180163;1259;44032;-63
2023/08/18 09:38:27;;;;;;;7.80;5.90;;;;;;;28.89;77.32;100415.13;180219;1259;44944;-63
2023/08/18 09:42:47;;;;;;;6.40;4.50;;;;;;;28.87;75.89;100414.99;180511;1259;43587;-63
2023/08/18 09:47:06;;;;;;;7.30;5.70;;;;;;;28.82;73.99;100411.70;180224;1259;58966;-63
2023/08/18 09:51:13;;;;;;;8.10;5.40;;;;;;;28.77;74.80;100410.77;180349;1259;45985;-63
2023/08/18 09:55:23;;;;;;;6.80;5.80;;;;;;;28.85;76.75;100405.63;180207;1259;44531;-63
2023/08/18 09:59:42;;;;;;;9.00;6.40;;;;;;;28.84;79.23;100399.10;180264;1259;44664;-63
2023/08/18 10:03:49;;;;;;;6.80;5.10;;;;;;;28.99;77.68;100393.45;180326;1260;44959;-63
2023/08/18 10:07:56;;;;;;;9.50;6.10;;;;;;;29.11;77.51;100387.97;180165;1263;58417;-63
2023/08/18 10:12:03;;;;;;;5.80;5.10;;;;;;;29.28;76.94;100387.66;180317;1260;44497;-63
2023/08/18 10:16:10;;;;;;;8.10;4.90;;;;;;;29.39;75.43;100387.79;180252;1260;45974;-63
2023/08/18 10:20:14;;;;;;;9.70;5.90;;;;;;;29.52;74.02;100380.34;180396;1260;43604;-63
2023/08/18 10:24:18;;;;;;;9.50;5.70;;;;;;;29.62;74.05;100378.58;180267;1259;43893;-63
2023/08/18 10:28:33;;;;;;;13.40;6.90;;;;;;;29.64;76.24;100374.91;180376;1263;57693;-62
2023/08/18 10:32:39;;;;;;;6.90;5.80;;;;;;;29.65;73.78;100373.73;180514;1264;44833;-62
2023/08/18 10:36:44;;;;;;;6.00;5.00;;;;;;;29.81;72.71;100373.41;180399;1263;45883;-63
2023/08/18 10:40:52;;;;;;;6.50;5.10;;;;;;;29.81;72.62;100368.54;180009;1260;44114;-63
2023/08/18 10:45:24;;;;;;;13.70;5.40;;;;;;;29.88;71.80;100359.08;180205;1260;43529;-63
2023/08/18 10:49:27;;;;;;;7.90;5.00;;;;;;;29.98;71.78;100358.61;180263;1263;58449;-63
2023/08/18 10:53:36;;;;;;;6.20;5.50;;;;;;;30.02;71.81;100354.30;180018;1260;43720;-63
2023/08/18 10:57:40;;;;;;;5.00;4.50;;;;;;;30.12;70.29;100356.64;180022;1260;44657;-64
2023/08/18 11:01:50;;;;;;;12.30;4.80;;;;;;;30.23;69.58;100359.11;179971;1259;43677;-64
2023/08/18 11:05:53;;;;;;;6.90;5.00;;;;;;;30.17;70.91;100354.27;180204;1260;44986;-63
2023/08/18 11:09:56;;;;;;;13.90;5.40;;;;;;;30.20;70.69;100352.92;180254;1263;59917;-63
2023/08/18 11:14:00;;;;;;;9.70;6.80;;;;;;;30.31;70.69;100355.66;180285;1260;46109;-62
2023/08/18 11:18:04;;;;;;;5.20;4.70;;;;;;;30.45;69.25;100357.73;180196;1259;46096;-62
2023/08/18 11:22:07;;;;;;;6.50;4.70;;;;;;;30.57;67.38;100355.34;180173;1261;44352;-63
2023/08/18 11:26:10;;;;;;;8.00;5.80;;;;;;;30.48;67.27;100352.21;180187;1261;45889;-62
2023/08/18 11:30:15;;;;;;;12.20;4.80;;;;;;;30.49;67.66;100354.81;180111;1260;57943;-63
2023/08/18 11:34:20;;;;;;;5.50;4.00;;;;;;;30.49;65.63;100354.37;180147;1260;45341;-63
2023/08/18 11:38:23;;;;;;;4.80;4.30;;;;;;;30.62;65.09;100356.17;180112;1259;46063;-62
2023/08/18 11:42:27;;;;;;;7.20;4.70;;;;;;;30.78;67.53;100356.23;180492;1259;44720;-64
2023/08/18 11:46:39;;;;;;;6.50;5.20;;;;;;;30.85;66.52;100357.12;180463;1260;43758;-62
2023/08/18 11:50:42;;;;;;;5.80;5.10;;;;;;;30.88;66.71;100355.95;180183;1260;58063;-63
2023/08/18 11:54:48;;;;;;;5.50;5.00;;;;;;;30.95;65.60;100354.09;180196;1261;45983;-63
2023/08/18 11:58:57;;;;;;;4.50;4.20;;;;;;;31.03;65.50;100352.72;180221;1260;46070;-62
2023/08/18 12:03:02;;;;;;;5.30;4.80;;;;;;;31.12;64.99;100357.38;180193;1259;46017;-63
2023/08/18 12:07:06;;;;;;;4.40;4.00;;;;;;;31.18;65.13;100352.96;180143;1261;43583;-63
2023/08/18 12:11:09;;;;;;;4.00;3.70;;;;;;;31.15;64.88;100351.73;180265;1259;58096;-62
2023/08/18 12:15:44;;;;;;;10.90;5.30;;;;;;;31.23;65.45;100350.33;180277;1260;45940;-63
2023/08/18 12:19:47;;;;;;;7.90;5.20;;;;;;;31.12;63.74;100345.05;180302;1260;43517;-62
2023/08/18 12:24:19;;;;;;;4.30;3.80;;;;;;;31.22;62.44;100346.69;180366;1261;44519;-64
2023/08/18 12:28:22;;;;;;;4.50;3.70;;;;;;;31.30;62.18;100348.63;180287;1260;44946;-64
2023/08/18 12:32:26;;;;;;;4.30;3.90;;;;;;;31.29;60.02;100354.95;180426;1260;57037;-64
2023/08/18 12:36:29;;;;;;;16.40;5.20;;;;;;;31.35;60.63;100347.02;180242;1260;45948;-64
2023/08/18 12:40:33;;;;;;;5.30;3.90;;;;;;;31.34;60.29;100344.09;180280;1260;45020;-63
2023/08/18 12:44:40;;;;;;;9.20;4.70;;;;;;;31.45;60.42;100336.86;180320;1259;43621;-64
2023/08/18 12:49:10;;;;;;;5.70;5.10;;;;;;;31.48;61.13;100339.03;180278;1260;44914;-65
2023/08/18 12:53:13;;;;;;;7.30;4.90;;;;;;;31.52;60.90;100335.25;180198;1260;58272;-65
2023/08/18 12:57:16;;;;;;;5.20;4.30;;;;;;;31.56;63.10;100330.77;180172;1260;45953;-65
2023/08/18 13:01:21;;;;;;;5.70;4.50;;;;;;;31.53;62.65;100328.11;180309;1263;44279;-64
2023/08/18 13:05:24;;;;;;;5.30;4.10;;;;;;;31.60;63.42;100321.28;180077;1260;44936;-64
2023/08/18 13:09:27;;;;;;;6.00;4.60;;;;;;;31.57;63.10;100321.86;180301;1260;45028;-64
2023/08/18 13:13:30;;;;;;;5.50;4.40;;;;;;;31.55;63.44;100324.39;180277;1260;57929;-64
2023/08/18 13:17:35;;;;;;;5.50;5.00;;;;;;;31.50;63.41;100321.39;180281;1260;43596;-63
2023/08/18 13:21:41;;;;;;;5.70;5.10;;;;;;;31.52;63.40;100319.48;180376;1259;43573;-64
2023/08/18 13:25:44;;;;;;;5.80;5.00;;;;;;;31.60;62.15;100313.59;180293;1260;45967;-64
2023/08/18 13:29:53;;;;;;;8.40;4.70;;;;;;;31.58;61.47;100314.73;180228;1260;45123;-72
2023/08/18 13:33:56;;;;;;;6.40;4.60;;;;;;;31.60;61.45;100312.20;180475;1259;59923;-69
2023/08/18 13:37:59;;;;;;;9.00;4.60;;;;;;;31.67;61.13;100301.86;180621;1259;43579;-70
2023/08/18 13:42:02;;;;;;;5.40;4.90;;;;;;;31.81;60.45;100297.11;180599;1260;44150;-67
2023/08/18 13:46:07;;;;;;;4.80;4.40;;;;;;;31.82;61.71;100294.09;180568;1260;43647;-69
2023/08/18 13:50:11;;;;;;;5.40;4.30;;;;;;;31.78;61.35;100291.80;180503;1259;46041;-70
2023/08/18 13:54:17;;;;;;;4.90;4.40;;;;;;;31.87;61.39;100293.85;180511;1260;58605;-70
2023/08/18 13:58:19;;;;;;;4.80;4.30;;;;;;;31.93;60.27;100294.09;180501;1260;43575;-69
2023/08/18 14:02:22;;;;;;;7.00;5.80;;;;;;;31.97;61.40;100290.91;180374;1260;43583;-68
2023/08/18 14:06:25;;;;;;;8.50;5.30;;;;;;;32.02;61.44;100292.30;180400;1259;46188;-71
2023/08/18 14:10:29;;;;;;;5.80;4.90;;;;;;;32.11;60.31;100294.09;180365;1259;43551;-69
2023/08/18 14:14:32;;;;;;;7.60;4.40;;;;;;;32.07;59.42;100293.42;180534;1259;58247;-69
2023/08/18 14:18:35;;;;;;;6.10;5.30;;;;;;;32.02;60.13;100291.25;180373;1259;44979;-68
2023/08/18 14:22:43;;;;;;;5.00;4.50;;;;;;;32.07;59.39;100288.47;180586;1259;44768;-67
2023/08/18 14:26:46;;;;;;;6.20;5.60;;;;;;;32.15;59.30;100292.45;180432;1260;45871;-70
2023/08/18 14:30:55;;;;;;;6.50;4.80;;;;;;;32.20;58.84;100296.04;180424;1263;43895;-65
2023/08/18 14:34:59;;;;;;;5.00;4.40;;;;;;;32.08;60.23;100291.11;180515;1260;58433;-69
2023/08/18 14:39:12;;;;;;;6.20;4.70;;;;;;;31.99;62.97;100295.48;180366;1260;46131;-67
2023/08/18 14:43:16;;;;;;;4.40;4.10;;;;;;;32.01;63.28;100297.53;180497;1259;43948;-70
2023/08/18 14:47:24;;;;;;;8.20;5.00;;;;;;;32.06;63.44;100295.07;180387;1259;45969;-69
2023/08/18 14:51:27;;;;;;;17.90;5.80;;;;;;;31.95;61.94;100296.51;180589;1259;44901;-70
2023/08/18 14:55:41;;;;;;;5.30;4.10;;;;;;;31.83;62.60;100300.70;180591;1260;58242;-67
2023/08/18 14:59:44;;;;;;;6.00;5.50;;;;;;;31.75;62.83;100290.85;180409;1259;45458;-69
2023/08/18 15:03:49;;;;;;;7.00;4.70;;;;;;;31.73;62.70;100286.98;180128;1260;46143;-67
2023/08/18 15:07:52;;;;;;;7.20;4.70;;;;;;;31.82;62.57;100287.38;180245;1260;44952;-65
2023/08/18 15:11:55;;;;;;;6.80;5.80;;;;;;;31.85;62.51;100283.05;180271;1259;43767;-70
2023/08/18 15:15:58;;;;;;;5.40;4.80;;;;;;;31.84;63.02;100278.76;180114;1260;59169;-69
2023/08/18 15:20:05;;;;;;;6.40;5.50;;;;;;;31.92;63.27;100278.08;180363;1260;45987;-68
2023/08/18 15:24:11;;;;;;;8.70;5.60;;;;;;;31.88;62.03;100276.36;180325;1259;43748;-69
2023/08/18 15:28:14;;;;;;;6.40;5.80;;;;;;;31.75;62.29;100272.73;180148;1259;43945;-67
2023/08/18 15:32:17;;;;;;;5.80;4.50;;;;;;;31.52;62.95;100268.91;180144;1260;46026;-68
2023/08/18 15:36:21;;;;;;;8.50;5.90;;;;;;;31.32;64.04;100268.86;180205;1259;58182;-68
2023/08/18 15:40:24;;;;;;;7.70;6.20;;;;;;;31.17;65.32;100271.70;180045;1259;45940;-69
2023/08/18 15:44:26;;;;;;;6.90;6.20;;;;;;;31.02;65.43;100271.58;180123;1259;46007;-67
2023/08/18 15:48:43;;;;;;;6.90;4.60;;;;;;;31.04;65.11;100265.45;180101;1260;45369;-68
2023/08/18 15:52:45;;;;;;;8.40;7.20;;;;;;;31.16;66.18;100258.19;180026;1259;44676;-69
2023/08/18 15:56:48;;;;;;;8.50;5.60;;;;;;;31.20;65.82;100258.32;179901;1259;58405;-67
2023/08/18 16:00:52;;;;;;;8.10;5.20;;;;;;;31.27;65.72;100257.95;179903;1260;43925;-69
2023/08/18 16:05:05;;;;;;;6.50;5.70;;;;;;;31.23;65.59;100259.12;180237;1259;46037;-70
2023/08/18 16:09:08;;;;;;;7.80;6.60;;;;;;;31.05;65.21;100263.92;180063;1259;44959;-71
2023/08/18 16:13:19;;;;;;;11.10;7.10;;;;;;;30.91;65.65;100259.16;179863;1261;45076;-68
2023/08/18 16:17:24;;;;;;;11.30;6.20;;;;;;;30.78;65.77;100257.77;179759;1260;57935;-69
2023/08/18 16:21:27;;;;;;;8.00;5.60;;;;;;;30.58;67.65;100263.91;179784;1259;44242;-70
2023/08/18 16:25:30;;;;;;;6.20;5.60;;;;;;;30.34;72.34;100267.95;180033;1259;44913;-67
2023/08/18 16:29:33;;;;;;;7.20;6.50;;;;;;;30.06;73.87;100269.39;179786;1259;45986;-69
2023/08/18 16:33:36;;;;;;;6.00;5.40;;;;;;;29.83;75.93;100274.65;179860;1259;43539;-70
2023/08/18 16:37:45;;;;;;;7.00;6.30;;;;;;;29.65;77.28;100276.95;179708;1259;59535;-67
2023/08/18 16:42:14;;;;;;;8.60;6.70;;;;;;;29.46;78.87;100273.56;179611;1259;45987;-67
2023/08/18 16:46:17;;;;;;;7.30;6.30;;;;;;;29.18;78.46;100275.92;179625;1259;45939;-69
2023/08/18 16:50:20;;;;;;;7.40;6.20;;;;;;;28.92;77.90;100282.91;180035;1259;46127;-70
2023/08/18 16:54:25;;;;;;;8.70;7.20;;;;;;;28.70;77.12;100283.45;179663;1259;45275;-69
2023/08/18 16:58:27;;;;;;;12.50;7.10;;;;;;;28.53;76.52;100286.16;179598;1260;59143;-70
2023/08/18 17:02:31;;;;;;;9.90;7.20;;;;;;;28.41;77.44;100286.98;179777;1263;46183;-67
2023/08/18 17:06:34;;;;;;;8.30;7.30;;;;;;;28.32;78.83;100291.92;179655;1259;46112;-70
2023/08/18 17:10:37;;;;;;;8.20;7.30;;;;;;;28.26;80.00;100287.24;179661;1259;46080;-70
2023/08/18 17:14:40;;;;;;;9.10;6.40;;;;;;;28.12;81.14;100282.02;180109;1259;45964;-68
2023/08/18 17:18:50;;;;;;;7.80;7.00;;;;;;;28.02;82.54;100282.48;179753;1259;58558;-71
2023/08/18 17:22:57;;;;;;;8.20;6.90;;;;;;;27.93;83.62;100283.71;179617;1259;45959;-72
2023/08/18 17:27:04;;;;;;;7.90;6.90;;;;;;;27.84;84.59;100277.63;179794;1259;45992;-71
2023/08/18 17:31:09;;;;;;;8.00;7.20;;;;;;;27.77;85.54;100282.26;179633;1259;46018;-71
2023/08/18 17:35:12;;;;;;;8.90;6.30;;;;;;;27.72;86.31;100284.77;179797;1259;44036;-70
2023/08/18 17:39:16;;;;;;;6.90;6.30;;;;;;;27.69;87.23;100287.48;179506;1259;58410;-70
2023/08/18 17:43:24;;;;;;;7.50;6.80;;;;;;;27.64;87.72;100292.69;179570;1259;43765;-71
2023/08/18 17:47:32;;;;;;;10.10;6.00;;;;;;;27.58;87.43;100294.19;179515;1260;45184;-70
2023/08/18 17:51:37;;;;;;;6.60;5.80;;;;;;;27.48;87.57;100299.67;179320;1259;45053;-71
2023/08/18 18:06:22;;;;;;;6.20;5.70;;;;;;;27.16;86.45;100319.73;180436;1260;46021;-91
2023/08/18 18:10:51;;;;;;;9.10;5.70;;;;;;;27.05;85.39;100325.73;180090;1260;45955;-89
2023/08/18 18:14:55;;;;;;;6.80;5.30;;;;;;;26.97;85.68;100329.64;179235;1259;46099;-88
2023/08/18 18:18:58;;;;;;;6.60;5.00;;;;;;;26.89;86.22;100328.64;179674;1260;44909;-88
2023/08/18 18:23:02;;;;;;;7.10;5.70;;;;;;;26.82;86.96;100332.23;179699;1260;59669;-89
2023/08/18 18:27:10;;;;;;;6.10;5.50;;;;;;;26.76;87.35;100337.16;179644;1260;46136;-88
2023/08/18 18:31:15;;;;;;;7.00;6.00;;;;;;;26.72;87.56;100337.96;179894;1263;46032;-89
2023/08/18 18:35:20;;;;;;;5.90;5.30;;;;;;;26.66;89.25;100335.95;179332;1262;46134;-89
2023/08/18 18:39:24;;;;;;;5.30;4.80;;;;;;;26.58;89.54;100340.23;179525;1263;45238;-89
2023/08/18 18:43:27;;;;;;;6.20;5.50;;;;;;;26.55;89.59;100342.83;179140;1259;58231;-89
2023/08/18 18:47:31;;;;;;;5.70;5.10;;;;;;;26.55;89.71;100346.73;179231;1259;44892;-89
2023/08/18 18:51:35;;;;;;;8.50;6.00;;;;;;;26.53;89.83;100350.31;179218;1263;44175;-89
2023/08/18 18:55:39;;;;;;;6.60;5.40;;;;;;;26.49;90.12;100354.05;179860;1259;46143;-89
2023/08/18 18:59:42;;;;;;;8.50;6.80;;;;;;;26.43;90.55;100357.45;179658;1259;43910;-89
2023/08/18 19:03:46;;;;;;;7.70;7.00;;;;;;;26.41;90.95;100363.86;179758;1259;58896;-89
2023/08/18 19:07:50;;;;;;;7.50;6.70;;;;;;;26.35;91.75;100365.85;179618;1259;46045;-87
2023/08/18 19:11:54;;;;;;;8.10;6.50;;;;;;;26.29;92.45;100362.66;179827;1260;46115;-88
2023/08/18 19:15:58;;;;;;;7.50;6.70;;;;;;;26.23;92.54;100367.90;179544;1259;44807;-87
2023/08/18 19:20:22;;;;;;;6.40;5.80;;;;;;;26.16;93.00;100372.52;179831;1260;44108;-88